Lwrnce, Kansas
Current Conditions -  °F | °C
As of 7:52 AM on Monday 24 Nov 2014 (Local Time) from KLWC Reporting Station
Clear Clear  
Wind Chill: 23°   Ceiling: Unl
Heat Index: 32°   Visibility: 10mi
Dew Point: 23°   Wind: 12mph
Humidity: 69%   Direction: 290°WNW
Pressure: 29.7"   Gusts: NA
Location:  38.9329°N, 95.2935°W
Report Text: KLWC 241352Z AUTO 29010KT 10SM CLR 00/M05 A2970 RMK AO2 SLP062 T00001050
Loading
Personal Weather Stations






























Interactive Weather Map New forecast layout! Learn more

10-Day Weather Forecast

Advertisements
Track Severe Weather on mobile